MXA1922 MMSM-MMPQ
Flight info
| Callsign | MXA1922 |
|---|---|
| Flight time | 1h 11m |
| Altitude | 35000 |
| Route | MMSM/04C N0459F350 UKUN1P UKUNO UT108 VER UJ12 ALUEN DCT VSA/N0381F170 V51 PQE DCT MMPQ/28 |
| Aircraft | E295/M-VGDW/C |
Departure
| Time | 2026-05-03 22:17 |
|---|---|
| Airport | Felipe Ángeles International Airport (MMSM) |
Arrival
| Time | 2026-05-03 23:29 |
|---|---|
| Airport | Palenque International Airport (MMPQ) |
| Time | Latitude | Longitude | Altitude | Speed | Heading |
|---|---|---|---|---|---|
| 2026-05-03 21:52 | 19.73356 | -99.02280 | 7372 ft | 0 kts | 320° |
| 2026-05-03 22:06 | 19.73355 | -99.02279 | 7372 ft | 1 kts | 320° |
| 2026-05-03 22:06 | 19.73344 | -99.02269 | 7372 ft | 2 kts | 319° |
| 2026-05-03 22:06 | 19.73333 | -99.02259 | 7372 ft | 0 kts | 320° |
| 2026-05-03 22:07 | 19.73325 | -99.02251 | 7372 ft | 2 kts | 303° |
| 2026-05-03 22:07 | 19.73319 | -99.02236 | 7372 ft | 2 kts | 278° |
| 2026-05-03 22:07 | 19.73320 | -99.02221 | 7372 ft | 2 kts | 254° |
| 2026-05-03 22:07 | 19.73326 | -99.02208 | 7372 ft | 0 kts | 232° |
| 2026-05-03 22:08 | 19.73330 | -99.02203 | 7372 ft | 1 kts | 228° |
| 2026-05-03 22:08 | 19.73331 | -99.02202 | 7372 ft | 0 kts | 229° |
| 2026-05-03 22:12 | 19.73329 | -99.02204 | 7372 ft | 1 kts | 229° |
| 2026-05-03 22:12 | 19.73320 | -99.02215 | 7372 ft | 2 kts | 229° |
| 2026-05-03 22:13 | 19.73303 | -99.02235 | 7372 ft | 4 kts | 229° |
| 2026-05-03 22:13 | 19.73279 | -99.02264 | 7372 ft | 6 kts | 229° |
| 2026-05-03 22:13 | 19.73248 | -99.02303 | 7372 ft | 7 kts | 229° |
| 2026-05-03 22:13 | 19.73209 | -99.02350 | 7372 ft | 9 kts | 229° |
| 2026-05-03 22:14 | 19.73163 | -99.02406 | 7372 ft | 10 kts | 227° |
| 2026-05-03 22:14 | 19.73097 | -99.02399 | 7372 ft | 11 kts | 142° |
| 2026-05-03 22:14 | 19.73034 | -99.02343 | 7372 ft | 12 kts | 139° |
| 2026-05-03 22:14 | 19.72964 | -99.02280 | 7373 ft | 13 kts | 139° |
| 2026-05-03 22:15 | 19.72944 | -99.02203 | 7373 ft | 10 kts | 59° |
| 2026-05-03 22:15 | 19.72961 | -99.02180 | 7373 ft | 0 kts | 49° |
| 2026-05-03 22:16 | 19.72962 | -99.02179 | 7373 ft | 2 kts | 49° |
| 2026-05-03 22:16 | 19.73127 | -99.01975 | 7375 ft | 73 kts | 49° |
| 2026-05-03 22:17 | 19.73624 | -99.01369 | 7375 ft | 139 kts | 49° |
| 2026-05-03 22:17 | 19.74379 | -99.00446 | 7375 ft | 191 kts | 49° |
| 2026-05-03 22:17 | 19.75256 | -98.99395 | 8053 ft | 189 kts | 49° |
| 2026-05-03 22:17 | 19.76121 | -98.98367 | 8845 ft | 192 kts | 49° |
| 2026-05-03 22:18 | 19.77021 | -98.97272 | 9388 ft | 211 kts | 52° |
| 2026-05-03 22:18 | 19.78011 | -98.96009 | 9900 ft | 234 kts | 49° |
| 2026-05-03 22:18 | 19.79093 | -98.94677 | 10762 ft | 239 kts | 51° |
| 2026-05-03 22:18 | 19.79785 | -98.93098 | 11475 ft | 248 kts | 85° |
| 2026-05-03 22:19 | 19.79474 | -98.91187 | 11699 ft | 282 kts | 119° |
| 2026-05-03 22:19 | 19.78060 | -98.89719 | 12225 ft | 297 kts | 154° |
| 2026-05-03 22:19 | 19.76024 | -98.89283 | 13036 ft | 304 kts | 186° |
| 2026-05-03 22:19 | 19.74080 | -98.90054 | 13903 ft | 307 kts | 214° |
| 2026-05-03 22:20 | 19.72717 | -98.91810 | 14639 ft | 314 kts | 248° |
| 2026-05-03 22:20 | 19.71843 | -98.93896 | 15575 ft | 317 kts | 237° |
| 2026-05-03 22:20 | 19.70251 | -98.95546 | 16442 ft | 323 kts | 224° |
| 2026-05-03 22:20 | 19.68667 | -98.97274 | 17328 ft | 327 kts | 229° |
| 2026-05-03 22:21 | 19.67084 | -98.98985 | 18109 ft | 332 kts | 230° |
| 2026-05-03 22:21 | 19.65451 | -99.00778 | 18912 ft | 338 kts | 228° |
| 2026-05-03 22:21 | 19.63804 | -99.02585 | 19608 ft | 346 kts | 229° |
| 2026-05-03 22:21 | 19.62105 | -99.04424 | 20259 ft | 354 kts | 226° |
| 2026-05-03 22:22 | 19.60027 | -99.05888 | 20821 ft | 368 kts | 204° |
| 2026-05-03 22:22 | 19.57438 | -99.06432 | 20884 ft | 395 kts | 180° |
| 2026-05-03 22:22 | 19.54678 | -99.06460 | 21520 ft | 400 kts | 188° |
| 2026-05-03 22:22 | 19.51844 | -99.06735 | 22104 ft | 409 kts | 185° |
| 2026-05-03 22:23 | 19.48999 | -99.06967 | 22788 ft | 414 kts | 186° |
| 2026-05-03 22:23 | 19.46094 | -99.06875 | 23496 ft | 419 kts | 167° |
| 2026-05-03 22:23 | 19.43438 | -99.05628 | 24171 ft | 421 kts | 143° |
| 2026-05-03 22:23 | 19.41410 | -99.03408 | 24704 ft | 425 kts | 120° |
| 2026-05-03 22:24 | 19.40334 | -99.00538 | 25354 ft | 422 kts | 98° |
| 2026-05-03 22:24 | 19.40368 | -98.97463 | 25965 ft | 417 kts | 74° |
| 2026-05-03 22:24 | 19.41334 | -98.94590 | 26383 ft | 422 kts | 67° |
| 2026-05-03 22:24 | 19.41978 | -98.91503 | 27000 ft | 429 kts | 76° |
| 2026-05-03 22:25 | 19.42627 | -98.88429 | 27591 ft | 433 kts | 75° |
| 2026-05-03 22:25 | 19.43249 | -98.85310 | 28079 ft | 438 kts | 75° |
| 2026-05-03 22:25 | 19.43892 | -98.82119 | 28672 ft | 441 kts | 75° |
| 2026-05-03 22:25 | 19.44769 | -98.79028 | 29130 ft | 442 kts | 65° |
| 2026-05-03 22:26 | 19.45885 | -98.76001 | 29614 ft | 445 kts | 67° |
| 2026-05-03 22:26 | 19.46986 | -98.72909 | 30048 ft | 448 kts | 66° |
| 2026-05-03 22:26 | 19.47776 | -98.69729 | 30300 ft | 458 kts | 82° |
| 2026-05-03 22:26 | 19.47670 | -98.66336 | 30592 ft | 461 kts | 91° |
| 2026-05-03 22:27 | 19.47550 | -98.62919 | 30935 ft | 463 kts | 90° |
| 2026-05-03 22:27 | 19.47400 | -98.59542 | 31173 ft | 465 kts | 90° |
| 2026-05-03 22:27 | 19.47260 | -98.56116 | 31440 ft | 465 kts | 90° |
| 2026-05-03 22:27 | 19.47116 | -98.52683 | 31621 ft | 467 kts | 90° |
| 2026-05-03 22:28 | 19.46972 | -98.49274 | 31751 ft | 468 kts | 90° |
| 2026-05-03 22:28 | 19.46829 | -98.45798 | 31922 ft | 467 kts | 90° |
| 2026-05-03 22:28 | 19.46681 | -98.42348 | 31952 ft | 471 kts | 90° |
| 2026-05-03 22:28 | 19.46538 | -98.38887 | 32053 ft | 470 kts | 90° |
| 2026-05-03 22:29 | 19.46284 | -98.35407 | 32144 ft | 471 kts | 93° |
| 2026-05-03 22:29 | 19.45691 | -98.28536 | 32266 ft | 471 kts | 93° |
| 2026-05-03 22:30 | 19.45104 | -98.21610 | 32305 ft | 473 kts | 93° |
| 2026-05-03 22:30 | 19.44514 | -98.14681 | 32414 ft | 472 kts | 93° |
| 2026-05-03 22:31 | 19.43921 | -98.07776 | 32448 ft | 473 kts | 93° |
| 2026-05-03 22:31 | 19.43298 | -98.00850 | 32478 ft | 473 kts | 97° |
| 2026-05-03 22:32 | 19.42617 | -97.93945 | 32484 ft | 471 kts | 92° |
| 2026-05-03 22:32 | 19.41990 | -97.87056 | 32529 ft | 471 kts | 94° |
| 2026-05-03 22:33 | 19.41321 | -97.80130 | 32556 ft | 472 kts | 94° |
| 2026-05-03 22:33 | 19.40649 | -97.73216 | 32573 ft | 473 kts | 94° |
| 2026-05-03 22:34 | 19.39973 | -97.66285 | 32619 ft | 473 kts | 94° |
| 2026-05-03 22:34 | 19.39298 | -97.59382 | 32632 ft | 473 kts | 94° |
| 2026-05-03 22:35 | 19.38619 | -97.52498 | 32661 ft | 473 kts | 94° |
| 2026-05-03 22:35 | 19.37934 | -97.45548 | 32675 ft | 473 kts | 94° |
| 2026-05-03 22:36 | 19.37248 | -97.38651 | 32698 ft | 473 kts | 94° |
| 2026-05-03 22:36 | 19.36556 | -97.31685 | 32712 ft | 473 kts | 94° |
| 2026-05-03 22:37 | 19.35865 | -97.24762 | 32722 ft | 473 kts | 94° |
| 2026-05-03 22:37 | 19.35172 | -97.17861 | 32727 ft | 472 kts | 94° |
| 2026-05-03 22:38 | 19.34475 | -97.10961 | 32733 ft | 472 kts | 94° |
| 2026-05-03 22:38 | 19.33720 | -97.04061 | 32728 ft | 473 kts | 99° |
| 2026-05-03 22:39 | 19.32196 | -96.97305 | 32750 ft | 474 kts | 102° |
| 2026-05-03 22:39 | 19.30656 | -96.90501 | 32757 ft | 474 kts | 102° |
| 2026-05-03 22:40 | 19.29121 | -96.83720 | 32769 ft | 474 kts | 102° |
| 2026-05-03 22:40 | 19.27587 | -96.76951 | 32776 ft | 474 kts | 102° |
| 2026-05-03 22:41 | 19.26041 | -96.70147 | 32786 ft | 474 kts | 102° |
| 2026-05-03 22:41 | 19.24502 | -96.63368 | 32796 ft | 474 kts | 102° |
| 2026-05-03 22:42 | 19.22954 | -96.56585 | 32807 ft | 474 kts | 102° |
| 2026-05-03 22:42 | 19.21417 | -96.49847 | 32822 ft | 474 kts | 102° |
| 2026-05-03 22:43 | 19.19867 | -96.43070 | 32835 ft | 473 kts | 102° |
| 2026-05-03 22:43 | 19.18315 | -96.36298 | 32852 ft | 474 kts | 102° |
| 2026-05-03 22:44 | 19.16767 | -96.29558 | 32857 ft | 474 kts | 102° |
| 2026-05-03 22:44 | 19.15215 | -96.22802 | 32863 ft | 474 kts | 102° |
| 2026-05-03 22:45 | 19.13404 | -96.16084 | 32865 ft | 475 kts | 108° |
| 2026-05-03 22:45 | 19.11229 | -96.09510 | 32874 ft | 474 kts | 108° |
| 2026-05-03 22:46 | 19.09059 | -96.02919 | 32881 ft | 474 kts | 108° |
| 2026-05-03 22:46 | 19.06902 | -95.96375 | 32892 ft | 474 kts | 108° |
| 2026-05-03 22:47 | 19.04728 | -95.89792 | 32898 ft | 475 kts | 107° |
| 2026-05-03 22:47 | 19.02547 | -95.83188 | 32912 ft | 475 kts | 107° |
| 2026-05-03 22:48 | 19.00384 | -95.76646 | 32922 ft | 474 kts | 107° |
| 2026-05-03 22:48 | 18.98207 | -95.70071 | 32933 ft | 474 kts | 108° |
| 2026-05-03 22:49 | 18.96025 | -95.63497 | 32947 ft | 473 kts | 108° |
| 2026-05-03 22:49 | 18.93858 | -95.56974 | 32963 ft | 474 kts | 108° |
| 2026-05-03 22:50 | 18.91671 | -95.50400 | 32977 ft | 473 kts | 108° |
| 2026-05-03 22:50 | 18.89485 | -95.43836 | 32993 ft | 474 kts | 108° |
| 2026-05-03 22:51 | 18.87306 | -95.37295 | 32989 ft | 474 kts | 108° |
| 2026-05-03 22:51 | 18.85105 | -95.30706 | 32976 ft | 474 kts | 108° |
| 2026-05-03 22:52 | 18.82916 | -95.24155 | 32970 ft | 474 kts | 108° |
| 2026-05-03 22:52 | 18.80732 | -95.17638 | 32958 ft | 474 kts | 108° |
| 2026-05-03 22:53 | 18.78531 | -95.11070 | 32948 ft | 474 kts | 108° |
| 2026-05-03 22:53 | 18.76334 | -95.04521 | 32939 ft | 473 kts | 108° |
| 2026-05-03 22:54 | 18.74138 | -94.97992 | 32934 ft | 474 kts | 108° |
| 2026-05-03 22:54 | 18.71936 | -94.91433 | 32925 ft | 474 kts | 108° |
| 2026-05-03 22:55 | 18.69727 | -94.84883 | 32926 ft | 474 kts | 108° |
| 2026-05-03 22:55 | 18.67516 | -94.78329 | 32918 ft | 474 kts | 108° |
| 2026-05-03 22:56 | 18.65321 | -94.71831 | 32913 ft | 474 kts | 108° |
| 2026-05-03 22:56 | 18.63100 | -94.65267 | 32918 ft | 473 kts | 108° |
| 2026-05-03 22:57 | 18.60892 | -94.58749 | 32916 ft | 472 kts | 108° |
| 2026-05-03 22:57 | 18.58686 | -94.52235 | 32921 ft | 472 kts | 108° |
| 2026-05-03 22:58 | 18.56475 | -94.45728 | 32924 ft | 472 kts | 108° |
| 2026-05-03 22:58 | 18.54259 | -94.39208 | 32932 ft | 472 kts | 109° |
| 2026-05-03 22:59 | 18.52054 | -94.32729 | 32933 ft | 471 kts | 109° |
| 2026-05-03 22:59 | 18.49843 | -94.26244 | 32924 ft | 471 kts | 109° |
| 2026-05-03 23:00 | 18.47627 | -94.19753 | 32920 ft | 472 kts | 109° |
| 2026-05-03 23:00 | 18.45406 | -94.13249 | 32917 ft | 471 kts | 109° |
| 2026-05-03 23:01 | 18.43196 | -94.06789 | 32914 ft | 471 kts | 109° |
| 2026-05-03 23:01 | 18.40974 | -94.00298 | 32913 ft | 471 kts | 109° |
| 2026-05-03 23:02 | 18.38746 | -93.93808 | 32911 ft | 471 kts | 109° |
| 2026-05-03 23:02 | 18.36518 | -93.87328 | 32911 ft | 472 kts | 109° |
| 2026-05-03 23:03 | 18.34286 | -93.80840 | 32907 ft | 472 kts | 109° |
| 2026-05-03 23:03 | 18.32054 | -93.74361 | 32913 ft | 472 kts | 109° |
| 2026-05-03 23:04 | 18.29822 | -93.67886 | 32914 ft | 471 kts | 109° |
| 2026-05-03 23:04 | 18.27581 | -93.61393 | 32918 ft | 471 kts | 109° |
| 2026-05-03 23:05 | 18.25346 | -93.54929 | 32924 ft | 470 kts | 109° |
| 2026-05-03 23:05 | 18.23107 | -93.48463 | 32627 ft | 478 kts | 109° |
| 2026-05-03 23:05 | 18.21949 | -93.45121 | 31678 ft | 491 kts | 109° |
| 2026-05-03 23:06 | 18.20814 | -93.41845 | 30843 ft | 473 kts | 109° |
| 2026-05-03 23:06 | 18.19692 | -93.38614 | 30026 ft | 461 kts | 109° |
| 2026-05-03 23:06 | 18.18602 | -93.35472 | 29216 ft | 454 kts | 109° |
| 2026-05-03 23:06 | 18.17534 | -93.32396 | 28421 ft | 450 kts | 110° |
| 2026-05-03 23:07 | 18.16465 | -93.29322 | 27646 ft | 446 kts | 109° |
| 2026-05-03 23:07 | 18.15411 | -93.26294 | 26888 ft | 443 kts | 109° |
| 2026-05-03 23:07 | 18.14355 | -93.23264 | 26127 ft | 440 kts | 109° |
| 2026-05-03 23:07 | 18.13306 | -93.20255 | 25390 ft | 437 kts | 109° |
| 2026-05-03 23:08 | 18.12279 | -93.17311 | 24797 ft | 430 kts | 108° |
| 2026-05-03 23:08 | 18.11263 | -93.14388 | 24288 ft | 422 kts | 108° |
| 2026-05-03 23:08 | 18.10257 | -93.11506 | 23788 ft | 414 kts | 108° |
| 2026-05-03 23:08 | 18.09290 | -93.08729 | 23303 ft | 406 kts | 108° |
| 2026-05-03 23:09 | 18.08317 | -93.05949 | 22787 ft | 400 kts | 107° |
| 2026-05-03 23:09 | 18.07362 | -93.03208 | 22280 ft | 394 kts | 108° |
| 2026-05-03 23:09 | 18.06431 | -93.00535 | 21802 ft | 388 kts | 107° |
| 2026-05-03 23:09 | 18.05510 | -92.97894 | 21332 ft | 382 kts | 108° |
| 2026-05-03 23:10 | 18.04615 | -92.95329 | 20939 ft | 375 kts | 108° |
| 2026-05-03 23:10 | 18.03723 | -92.92773 | 20558 ft | 370 kts | 108° |
| 2026-05-03 23:10 | 18.02828 | -92.90226 | 20188 ft | 368 kts | 108° |
| 2026-05-03 23:10 | 18.01959 | -92.87740 | 19826 ft | 366 kts | 108° |
| 2026-05-03 23:11 | 18.01080 | -92.85235 | 19462 ft | 365 kts | 109° |
| 2026-05-03 23:11 | 18.00197 | -92.82720 | 19088 ft | 364 kts | 109° |
| 2026-05-03 23:11 | 17.99076 | -92.80379 | 18703 ft | 362 kts | 121° |
| 2026-05-03 23:11 | 17.97732 | -92.78130 | 18338 ft | 359 kts | 120° |
| 2026-05-03 23:12 | 17.96438 | -92.75912 | 17964 ft | 355 kts | 121° |
| 2026-05-03 23:12 | 17.95162 | -92.73731 | 17584 ft | 351 kts | 121° |
| 2026-05-03 23:12 | 17.93885 | -92.71545 | 17187 ft | 348 kts | 121° |
| 2026-05-03 23:12 | 17.92617 | -92.69383 | 16808 ft | 345 kts | 121° |
| 2026-05-03 23:13 | 17.91376 | -92.67248 | 16429 ft | 343 kts | 121° |
| 2026-05-03 23:13 | 17.90135 | -92.65128 | 16051 ft | 342 kts | 121° |
| 2026-05-03 23:13 | 17.88882 | -92.62987 | 15645 ft | 340 kts | 121° |
| 2026-05-03 23:13 | 17.87652 | -92.60889 | 15261 ft | 339 kts | 121° |
| 2026-05-03 23:14 | 17.86426 | -92.58784 | 14868 ft | 337 kts | 120° |
| 2026-05-03 23:14 | 17.85197 | -92.56689 | 14493 ft | 335 kts | 121° |
| 2026-05-03 23:14 | 17.83982 | -92.54608 | 14112 ft | 333 kts | 121° |
| 2026-05-03 23:14 | 17.82773 | -92.52548 | 13724 ft | 333 kts | 121° |
| 2026-05-03 23:15 | 17.81565 | -92.50482 | 13329 ft | 330 kts | 121° |
| 2026-05-03 23:15 | 17.80364 | -92.48435 | 12932 ft | 323 kts | 120° |
| 2026-05-03 23:15 | 17.79201 | -92.46452 | 12519 ft | 317 kts | 121° |
| 2026-05-03 23:15 | 17.78070 | -92.44521 | 12120 ft | 311 kts | 120° |
| 2026-05-03 23:16 | 17.76950 | -92.42606 | 11724 ft | 305 kts | 120° |
| 2026-05-03 23:16 | 17.75833 | -92.40708 | 11323 ft | 300 kts | 120° |
| 2026-05-03 23:16 | 17.74755 | -92.38866 | 10928 ft | 295 kts | 120° |
| 2026-05-03 23:16 | 17.73691 | -92.37058 | 10520 ft | 290 kts | 120° |
| 2026-05-03 23:17 | 17.72647 | -92.35281 | 10112 ft | 286 kts | 120° |
| 2026-05-03 23:17 | 17.71594 | -92.33496 | 9711 ft | 282 kts | 120° |
| 2026-05-03 23:17 | 17.70575 | -92.31760 | 9318 ft | 279 kts | 120° |
| 2026-05-03 23:17 | 17.69558 | -92.30031 | 8934 ft | 276 kts | 120° |
| 2026-05-03 23:18 | 17.68556 | -92.28333 | 8554 ft | 275 kts | 120° |
| 2026-05-03 23:18 | 17.67551 | -92.26623 | 8170 ft | 275 kts | 120° |
| 2026-05-03 23:18 | 17.66562 | -92.24940 | 7900 ft | 272 kts | 120° |
| 2026-05-03 23:18 | 17.65562 | -92.23245 | 7655 ft | 272 kts | 120° |
| 2026-05-03 23:19 | 17.64563 | -92.21549 | 7436 ft | 274 kts | 120° |
| 2026-05-03 23:19 | 17.63561 | -92.19848 | 7207 ft | 274 kts | 120° |
| 2026-05-03 23:19 | 17.62555 | -92.18145 | 6968 ft | 274 kts | 120° |
| 2026-05-03 23:19 | 17.61550 | -92.16440 | 6727 ft | 273 kts | 120° |
| 2026-05-03 23:20 | 17.60563 | -92.14766 | 6494 ft | 272 kts | 121° |
| 2026-05-03 23:20 | 17.59556 | -92.13061 | 6248 ft | 271 kts | 120° |
| 2026-05-03 23:20 | 17.58566 | -92.11378 | 6019 ft | 270 kts | 120° |
| 2026-05-03 23:20 | 17.57580 | -92.09709 | 5780 ft | 270 kts | 120° |
| 2026-05-03 23:21 | 17.56597 | -92.08042 | 5540 ft | 269 kts | 120° |
| 2026-05-03 23:21 | 17.55619 | -92.06387 | 5303 ft | 268 kts | 120° |
| 2026-05-03 23:21 | 17.54624 | -92.04703 | 5064 ft | 267 kts | 120° |
| 2026-05-03 23:21 | 17.53846 | -92.02989 | 4994 ft | 260 kts | 98° |
| 2026-05-03 23:22 | 17.54108 | -91.99226 | 5007 ft | 262 kts | 83° |
| 2026-05-03 23:22 | 17.54298 | -91.97344 | 5012 ft | 262 kts | 82° |
| 2026-05-03 23:22 | 17.54488 | -91.95431 | 5003 ft | 262 kts | 82° |
| 2026-05-03 23:23 | 17.54670 | -91.93604 | 5002 ft | 262 kts | 83° |
| 2026-05-03 23:23 | 17.54867 | -91.91631 | 4998 ft | 262 kts | 83° |
| 2026-05-03 23:23 | 17.55056 | -91.89726 | 4993 ft | 262 kts | 83° |
| 2026-05-03 23:23 | 17.55248 | -91.87802 | 4721 ft | 264 kts | 82° |
| 2026-05-03 23:24 | 17.55298 | -91.85983 | 4151 ft | 242 kts | 103° |
| 2026-05-03 23:24 | 17.54519 | -91.84581 | 3807 ft | 214 kts | 137° |
| 2026-05-03 23:24 | 17.53277 | -91.83916 | 3611 ft | 189 kts | 167° |
| 2026-05-03 23:24 | 17.51990 | -91.83934 | 3294 ft | 183 kts | 194° |
| 2026-05-03 23:25 | 17.50857 | -91.84514 | 2949 ft | 179 kts | 220° |
| 2026-05-03 23:25 | 17.50135 | -91.85542 | 2570 ft | 174 kts | 253° |
| 2026-05-03 23:25 | 17.49902 | -91.86749 | 2235 ft | 169 kts | 270° |
| 2026-05-03 23:25 | 17.49972 | -91.87963 | 1881 ft | 166 kts | 281° |
| 2026-05-03 23:26 | 17.50183 | -91.89151 | 1524 ft | 164 kts | 284° |
| 2026-05-03 23:26 | 17.50443 | -91.90301 | 1229 ft | 159 kts | 286° |
| 2026-05-03 23:26 | 17.50703 | -91.91374 | 1055 ft | 146 kts | 285° |
| 2026-05-03 23:26 | 17.50945 | -91.92363 | 880 ft | 135 kts | 286° |
| 2026-05-03 23:27 | 17.51181 | -91.93281 | 834 ft | 127 kts | 287° |
| 2026-05-03 23:27 | 17.51419 | -91.94185 | 864 ft | 131 kts | 286° |
| 2026-05-03 23:27 | 17.51658 | -91.95120 | 889 ft | 136 kts | 287° |
| 2026-05-03 23:27 | 17.51906 | -91.96094 | 899 ft | 138 kts | 287° |
| 2026-05-03 23:28 | 17.52153 | -91.97058 | 956 ft | 137 kts | 287° |
| 2026-05-03 23:28 | 17.52396 | -91.98035 | 846 ft | 142 kts | 286° |
| 2026-05-03 23:28 | 17.52651 | -91.99033 | 566 ft | 140 kts | 286° |
| 2026-05-03 23:28 | 17.52893 | -92.00005 | 332 ft | 135 kts | 285° |
| 2026-05-03 23:29 | 17.53132 | -92.00914 | 201 ft | 118 kts | 286° |
| 2026-05-03 23:29 | 17.53270 | -92.01432 | 185 ft | 42 kts | 285° |
| 2026-05-03 23:29 | 17.53347 | -92.01675 | 181 ft | 21 kts | 323° |
| 2026-05-03 23:29 | 17.53476 | -92.01667 | 181 ft | 17 kts | 21° |
| 2026-05-03 23:30 | 17.53571 | -92.01653 | 182 ft | 10 kts | 346° |
| 2026-05-03 23:30 | 17.53622 | -92.01646 | 183 ft | 3 kts | 15° |
| 2026-05-03 23:30 | 17.53624 | -92.01645 | 183 ft | 0 kts | 15° |